Time;durP1;ratioP1;P1;durP2;ratioP2;P2;SDS_P1;SDS_P2;PMS_P1;PMS_P2;Temp;Humidity;BMP_temperature;BMP_pressure;BME280_temperature;BME280_humidity;BME280_pressure;Samples;Min_cycle;Max_cycle;Signal;HPM_P1;HPM_P2
2021/07/29 00:01:33;;;;;;;;;;;;;;;27.82;48.54;100464.77;1830395;77;20185;-57
2021/07/29 00:04:00;;;;;;;;;;;;;;;27.82;48.56;100470.36;1838766;77;20149;-57
2021/07/29 00:06:26;;;;;;;;;;;;;;;27.82;48.56;100471.76;1841198;77;20473;-57
2021/07/29 00:08:52;;;;;;;;;;;;;;;27.82;48.59;100466.17;1842464;76;20684;-58
2021/07/29 00:11:19;;;;;;;;;;;;;;;27.81;48.62;100454.76;1834420;77;20075;-57
2021/07/29 00:13:46;;;;;;;;;;;;;;;27.83;48.65;100460.80;1833773;77;20157;-58
2021/07/29 00:16:12;;;;;;;;;;;;;;;27.83;48.66;100463.59;1841402;77;20428;-58
2021/07/29 00:21:22;;;;;;;;;;;;;;;27.83;48.72;100455.80;1838008;77;21967;-57
2021/07/29 00:23:49;;;;;;;;;;;;;;;27.82;48.73;100454.98;1841297;76;20184;-57
2021/07/29 00:26:16;;;;;;;;;;;;;;;27.82;48.77;100449.98;1839585;76;20437;-57
2021/07/29 00:28:42;;;;;;;;;;;;;;;27.83;48.80;100454.39;1832954;77;20630;-57
2021/07/29 00:31:08;;;;;;;;;;;;;;;27.82;48.84;100448.58;1844480;77;20165;-57
2021/07/29 00:33:34;;;;;;;;;;;;;;;27.83;48.87;100448.22;1842626;77;21100;-57
2021/07/29 00:36:00;;;;;;;;;;;;;;;27.83;48.87;100444.61;1842596;77;20179;-57
2021/07/29 00:38:26;;;;;;;;;;;;;;;27.83;48.92;100453.00;1841146;77;20568;-57
2021/07/29 00:40:52;;;;;;;;;;;;;;;27.83;48.96;100454.39;1840039;76;20197;-56
2021/07/29 00:43:18;;;;;;;;;;;;;;;27.83;49.00;100452.41;1847996;76;20246;-57
2021/07/29 00:45:44;;;;;;;;;;;;;;;27.83;49.00;100456.61;1838179;76;21178;-57
2021/07/29 00:48:13;;;;;;;;;;;;;;;27.83;49.02;100453.81;1844871;76;20437;-57
2021/07/29 00:50:39;;;;;;;;;;;;;;;27.83;49.06;100446.01;1841930;77;20166;-57
2021/07/29 00:53:06;;;;;;;;;;;;;;;27.83;49.11;100448.80;1841549;77;20210;-57
2021/07/29 00:55:32;;;;;;;;;;;;;;;27.82;49.11;100452.19;1841658;76;20186;-57
2021/07/29 00:57:58;;;;;;;;;;;;;;;27.83;49.17;100452.41;1849868;76;21108;-57
2021/07/29 01:00:24;;;;;;;;;;;;;;;27.84;49.18;100444.83;1844399;76;20476;-57
2021/07/29 01:02:52;;;;;;;;;;;;;;;27.83;49.24;100439.83;1837235;76;20468;-57
2021/07/29 01:05:18;;;;;;;;;;;;;;;27.83;49.28;100437.03;1845760;77;20156;-57
2021/07/29 01:07:44;;;;;;;;;;;;;;;27.84;49.31;100431.63;1838972;76;21283;-57
2021/07/29 01:10:11;;;;;;;;;;;;;;;27.83;49.36;100424.45;1844074;76;20701;-58
2021/07/29 01:12:37;;;;;;;;;;;;;;;27.83;49.39;100425.04;1842324;77;20234;-58
2021/07/29 01:15:04;;;;;;;;;;;;;;;27.83;49.43;100424.45;1841840;76;20140;-58
2021/07/29 01:17:32;;;;;;;;;;;;;;;27.84;49.46;100429.45;1845135;77;20448;-58
2021/07/29 01:19:58;;;;;;;;;;;;;;;27.83;49.50;100422.25;1845460;76;20211;-59
2021/07/29 01:22:30;;;;;;;;;;;;;;;27.84;49.54;100428.84;1840158;76;21124;-59
2021/07/29 01:24:56;;;;;;;;;;;;;;;27.84;49.55;100439.24;1840576;77;20086;-58
2021/07/29 01:27:22;;;;;;;;;;;;;;;27.83;49.57;100437.03;1842361;76;20201;-56
2021/07/29 01:29:48;;;;;;;;;;;;;;;27.83;49.62;100439.02;1841745;77;20163;-56
2021/07/29 01:32:14;;;;;;;;;;;;;;;27.83;49.68;100446.01;1842334;76;20152;-56
2021/07/29 01:34:41;;;;;;;;;;;;;;;27.82;49.70;100438.20;1846992;77;21073;-56
2021/07/29 01:37:07;;;;;;;;;;;;;;;27.82;49.75;100446.59;1848849;76;20140;-56
2021/07/29 01:39:33;;;;;;;;;;;;;;;27.83;49.79;100446.01;1841392;76;20192;-57
2021/07/29 01:41:59;;;;;;;;;;;;;;;27.83;49.82;100448.80;1844994;77;20131;-56
2021/07/29 01:44:25;;;;;;;;;;;;;;;27.82;49.86;100450.79;1838862;76;20317;-56
2021/07/29 01:46:51;;;;;;;;;;;;;;;27.82;49.88;100454.17;1846424;76;21189;-56
2021/07/29 01:49:22;;;;;;;;;;;;;;;27.82;49.92;100454.17;1844560;76;20151;-57
2021/07/29 01:51:45;;;;;;;;;;;;;;;27.83;49.95;100451.60;1843432;77;20401;-57
2021/07/29 01:54:12;;;;;;;;;;;;;;;27.82;50.01;100446.59;1841579;76;20196;-56
2021/07/29 01:56:38;;;;;;;;;;;;;;;27.81;50.03;100446.38;1843573;77;20135;-56
2021/07/29 01:59:06;;;;;;;;;;;;;;;27.82;50.06;100438.20;1798683;77;21845;-56
2021/07/29 02:01:32;;;;;;;;;;;;;;;27.82;50.09;100436.00;1844317;76;20146;-57
2021/07/29 02:03:58;;;;;;;;;;;;;;;27.82;50.12;100434.02;1841393;77;20427;-56
2021/07/29 02:06:24;;;;;;;;;;;;;;;27.81;50.16;100440.78;1842786;76;20723;-56
2021/07/29 02:08:50;;;;;;;;;;;;;;;27.80;50.20;100440.56;1841343;76;20469;-56
2021/07/29 02:11:16;;;;;;;;;;;;;;;27.81;50.22;100433.80;1841939;76;21172;-56
2021/07/29 02:13:42;;;;;;;;;;;;;;;27.81;50.27;100431.59;1842755;76;20154;-56
2021/07/29 02:16:10;;;;;;;;;;;;;;;27.82;50.29;100434.61;1836590;76;20226;-56
2021/07/29 02:18:36;;;;;;;;;;;;;;;27.81;50.32;100442.18;1834927;76;20641;-56
2021/07/29 02:21:02;;;;;;;;;;;;;;;27.81;50.35;100434.38;1832147;78;20088;-56
2021/07/29 02:23:28;;;;;;;;;;;;;;;27.80;50.39;100439.16;1764329;80;21841;-56
2021/07/29 02:25:54;;;;;;;;;;;;;;;27.80;50.42;100433.57;1765806;80;20611;-56
2021/07/29 02:28:20;;;;;;;;;;;;;;;27.81;50.44;100430.19;1835820;76;20144;-56
2021/07/29 02:30:46;;;;;;;;;;;;;;;27.79;50.48;100431.98;1839350;76;20168;-57
2021/07/29 02:33:13;;;;;;;;;;;;;;;27.80;50.53;100435.55;1834487;76;20140;-56
2021/07/29 02:35:39;;;;;;;;;;;;;;;27.81;50.55;100446.96;1830825;76;21558;-56
2021/07/29 02:38:05;;;;;;;;;;;;;;;27.80;50.57;100448.13;1835422;78;20207;-56
2021/07/29 02:40:31;;;;;;;;;;;;;;;27.80;50.60;100443.94;1834212;76;20410;-57
2021/07/29 02:42:57;;;;;;;;;;;;;;;27.79;50.64;100438.97;1837104;76;20131;-56
2021/07/29 02:45:23;;;;;;;;;;;;;;;27.80;50.65;100444.75;1833216;76;20162;-56
2021/07/29 02:47:50;;;;;;;;;;;;;;;27.79;50.66;100452.14;1836195;78;21131;-57
2021/07/29 02:50:17;;;;;;;;;;;;;;;27.79;50.72;100452.14;1834383;76;20132;-56
2021/07/29 02:52:43;;;;;;;;;;;;;;;27.79;50.74;100445.14;1836231;76;20157;-56
2021/07/29 02:55:09;;;;;;;;;;;;;;;27.77;50.78;100446.91;1835811;78;20120;-55
2021/07/29 02:57:36;;;;;;;;;;;;;;;27.77;50.79;100446.91;1830504;76;20241;-56
2021/07/29 03:00:03;;;;;;;;;;;;;;;27.76;50.82;100446.69;1835934;76;21134;-56
2021/07/29 03:02:29;;;;;;;;;;;;;;;27.77;50.84;100445.52;1828530;76;20128;-56
2021/07/29 03:04:55;;;;;;;;;;;;;;;27.77;50.87;100450.29;1832467;76;20901;-56
2021/07/29 03:07:22;;;;;;;;;;;;;;;27.77;50.92;100447.50;1835621;76;20180;-57
2021/07/29 03:09:48;;;;;;;;;;;;;;;27.76;50.93;100445.29;1797475;78;20201;-57
2021/07/29 03:12:14;;;;;;;;;;;;;;;27.76;50.96;100450.87;1836163;78;21085;-56
2021/07/29 03:14:40;;;;;;;;;;;;;;;27.75;51.00;100452.09;1766386;80;20206;-56
2021/07/29 03:17:06;;;;;;;;;;;;;;;27.74;51.02;100453.26;1839288;76;20160;-56
2021/07/29 03:19:33;;;;;;;;;;;;;;;27.75;51.07;100452.09;1837289;76;20160;-56
2021/07/29 03:21:59;;;;;;;;;;;;;;;27.75;51.07;100447.89;1832457;76;20223;-57
2021/07/29 03:24:25;;;;;;;;;;;;;;;27.74;51.09;100436.48;1835642;77;21095;-57
2021/07/29 03:26:51;;;;;;;;;;;;;;;27.74;51.12;100436.48;1836730;78;20338;-55
2021/07/29 03:29:17;;;;;;;;;;;;;;;27.74;51.15;100445.46;1832250;76;20303;-54
2021/07/29 03:31:43;;;;;;;;;;;;;;;27.73;51.21;100452.23;1833516;78;21220;-55
2021/07/29 03:34:09;;;;;;;;;;;;;;;27.73;51.27;100453.03;1828793;78;20119;-56
2021/07/29 03:36:35;;;;;;;;;;;;;;;27.74;51.35;100455.24;1764654;80;21152;-56
2021/07/29 03:39:05;;;;;;;;;;;;;;;27.73;51.41;100451.64;1763372;80;20328;-56
2021/07/29 03:41:29;;;;;;;;;;;;;;;27.74;51.47;100449.66;1832799;77;20413;-56
2021/07/29 03:44:07;;;;;;;;;;;;;;;27.74;51.52;100445.46;1826252;78;20076;-56
2021/07/29 03:46:33;;;;;;;;;;;;;;;27.75;51.59;100447.08;1829571;78;20211;-57
2021/07/29 03:48:58;;;;;;;;;;;;;;;27.75;51.65;100442.30;1764664;81;21059;-55
2021/07/29 03:51:25;;;;;;;;;;;;;;;27.76;51.68;100448.08;1836061;77;20182;-57
2021/07/29 03:53:51;;;;;;;;;;;;;;;27.75;51.72;100447.89;1839799;76;20076;-56
2021/07/29 03:56:17;;;;;;;;;;;;;;;27.77;51.77;100455.88;1834359;78;21897;-57
2021/07/29 03:58:43;;;;;;;;;;;;;;;27.76;51.78;100455.07;1830276;76;20148;-53
2021/07/29 04:01:10;;;;;;;;;;;;;;;27.77;51.81;100455.88;1833572;77;21129;-49
2021/07/29 04:03:37;;;;;;;;;;;;;;;27.77;51.83;100463.68;1833358;78;21623;-52
2021/07/29 04:06:03;;;;;;;;;;;;;;;27.77;51.84;100453.09;1836266;78;20207;-56
2021/07/29 04:08:29;;;;;;;;;;;;;;;27.78;51.88;100458.91;1836276;76;20182;-56
2021/07/29 04:10:58;;;;;;;;;;;;;;;27.79;51.90;100471.12;1834739;78;20410;-56
2021/07/29 04:13:23;;;;;;;;;;;;;;;27.79;51.90;100461.33;1828067;76;21070;-55
2021/07/29 04:16:00;;;;;;;;;;;;;;;27.79;51.89;100468.32;1836751;76;20365;-54
2021/07/29 04:18:27;;;;;;;;;;;;;;;27.80;51.88;100464.91;1832302;76;21204;-52
2021/07/29 04:20:53;;;;;;;;;;;;;;;27.80;51.85;100466.30;1840512;76;20623;-54
2021/07/29 04:23:19;;;;;;;;;;;;;;;27.80;51.83;100455.13;1844021;77;20140;-56
2021/07/29 04:25:45;;;;;;;;;;;;;;;27.81;51.85;100451.16;1836226;77;21075;-56
2021/07/29 04:28:11;;;;;;;;;;;;;;;27.81;51.83;100449.17;1839707;77;20177;-56
2021/07/29 04:30:37;;;;;;;;;;;;;;;27.81;51.83;100456.16;1837852;77;20719;-57
2021/07/29 04:33:05;;;;;;;;;;;;;;;27.82;51.88;100454.98;1848554;77;20441;-57
2021/07/29 04:35:31;;;;;;;;;;;;;;;27.81;51.94;100459.54;1808974;77;20187;-56
2021/07/29 04:37:57;;;;;;;;;;;;;;;27.82;51.97;100456.38;1842625;77;21094;-56
2021/07/29 04:40:22;;;;;;;;;;;;;;;27.82;51.98;100458.37;1842001;77;20210;-56
2021/07/29 04:42:48;;;;;;;;;;;;;;;27.81;51.99;100452.55;1847488;77;20103;-56
2021/07/29 04:45:15;;;;;;;;;;;;;;;27.82;52.05;100461.16;1838539;76;21879;-57
2021/07/29 04:47:41;;;;;;;;;;;;;;;27.82;52.06;100454.98;1837015;76;20212;-58
2021/07/29 04:50:07;;;;;;;;;;;;;;;27.82;52.04;100455.57;1843368;76;21128;-58
2021/07/29 04:52:34;;;;;;;;;;;;;;;27.82;52.06;100449.39;1841365;77;20373;-58
2021/07/29 04:55:00;;;;;;;;;;;;;;;27.83;52.10;100451.02;1840568;76;20228;-57
2021/07/29 04:57:26;;;;;;;;;;;;;;;27.83;52.11;100455.80;1842640;76;20170;-58
2021/07/29 04:59:52;;;;;;;;;;;;;;;27.83;52.14;100447.41;1845252;76;20337;-57
2021/07/29 05:02:18;;;;;;;;;;;;;;;27.85;52.17;100459.00;1843140;76;21147;-57
2021/07/29 05:04:44;;;;;;;;;;;;;;;27.84;52.21;100456.02;1847777;76;21092;-58
2021/07/29 05:07:13;;;;;;;;;;;;;;;27.84;52.22;100458.81;1843549;76;20393;-58
2021/07/29 05:09:39;;;;;;;;;;;;;;;27.84;52.27;100455.40;1837006;76;20161;-56
2021/07/29 05:12:06;;;;;;;;;;;;;;;27.84;52.30;100451.20;1845040;76;20389;-58
2021/07/29 05:14:32;;;;;;;;;;;;;;;27.84;52.36;100455.40;1841762;76;21894;-59
2021/07/29 05:17:01;;;;;;;;;;;;;;;27.85;52.44;100462.61;1841893;76;20373;-58
2021/07/29 05:19:27;;;;;;;;;;;;;;;27.85;52.48;100464.02;1831494;77;20084;-59
2021/07/29 05:21:53;;;;;;;;;;;;;;;27.84;52.54;100459.59;1828884;76;20652;-58
2021/07/29 05:24:19;;;;;;;;;;;;;;;27.84;52.56;100459.59;1833628;78;20238;-58
2021/07/29 05:26:45;;;;;;;;;;;;;;;27.84;52.55;100464.41;1834057;76;21757;-57
2021/07/29 05:29:11;;;;;;;;;;;;;;;27.84;52.44;100466.58;1831643;76;20175;-59
2021/07/29 05:31:41;;;;;;;;;;;;;;;27.83;52.37;100467.79;1832599;76;20159;-58
2021/07/29 05:34:05;;;;;;;;;;;;;;;27.82;52.36;100471.76;1830594;76;20151;-59
2021/07/29 05:36:31;;;;;;;;;;;;;;;27.81;52.34;100470.13;1764776;80;20214;-58
2021/07/29 05:38:57;;;;;;;;;;;;;;;27.81;52.31;100468.73;1794089;78;21000;-58
2021/07/29 05:41:23;;;;;;;;;;;;;;;27.80;52.26;100468.52;1788505;78;20851;-59
2021/07/29 05:43:49;;;;;;;;;;;;;;;27.80;52.24;100467.70;1832368;76;20156;-59
2021/07/29 05:46:15;;;;;;;;;;;;;;;27.79;52.22;100479.50;1839564;76;20175;-59
2021/07/29 05:48:41;;;;;;;;;;;;;;;27.79;52.22;100486.49;1835433;76;20080;-59
2021/07/29 05:51:07;;;;;;;;;;;;;;;27.79;52.19;100485.69;1830311;76;20982;-59
2021/07/29 05:53:33;;;;;;;;;;;;;;;27.79;52.15;100484.28;1835637;76;20265;-59
2021/07/29 05:55:59;;;;;;;;;;;;;;;27.79;52.09;100477.30;1827868;76;20304;-58
2021/07/29 05:58:25;;;;;;;;;;;;;;;27.77;52.04;100476.27;1831258;76;20194;-59
2021/07/29 06:00:52;;;;;;;;;;;;;;;27.77;52.01;100477.66;1830817;76;20245;-59
2021/07/29 06:03:18;;;;;;;;;;;;;;;27.76;51.97;100470.45;1832808;76;21067;-59
2021/07/29 06:05:44;;;;;;;;;;;;;;;27.78;51.95;100470.08;1767938;80;20132;-59
2021/07/29 06:08:10;;;;;;;;;;;;;;;27.76;51.92;100466.25;1831717;76;20132;-60
2021/07/29 06:10:36;;;;;;;;;;;;;;;27.77;51.89;100465.67;1833808;76;20155;-59
2021/07/29 06:13:03;;;;;;;;;;;;;;;27.76;51.85;100467.65;1833457;76;20230;-60
2021/07/29 06:15:29;;;;;;;;;;;;;;;27.76;51.83;100461.25;1837296;78;21830;-59
2021/07/29 06:17:57;;;;;;;;;;;;;;;27.76;51.79;100465.44;1763270;80;20198;-59
2021/07/29 06:20:23;;;;;;;;;;;;;;;27.75;51.79;100470.25;1782008;78;20181;-60
2021/07/29 06:22:49;;;;;;;;;;;;;;;27.75;51.77;100473.05;1762643;79;20149;-59
2021/07/29 06:25:17;;;;;;;;;;;;;;;27.70;51.70;100473.36;1763404;81;20203;-59
2021/07/29 06:27:44;;;;;;;;;;;;;;;27.66;51.62;100471.91;1769458;80;23127;-59
2021/07/29 06:30:11;;;;;;;;;;;;;;;27.61;51.55;100475.01;1762014;79;20188;-60
2021/07/29 06:32:37;;;;;;;;;;;;;;;27.56;51.50;100468.33;1770381;80;20492;-60
2021/07/29 06:35:04;;;;;;;;;;;;;;;27.52;51.43;100462.45;1764671;79;20196;-59
2021/07/29 06:37:30;;;;;;;;;;;;;;;27.49;51.33;100470.20;1779571;78;20473;-59
2021/07/29 06:39:56;;;;;;;;;;;;;;;27.46;51.20;100464.72;1775337;79;21137;-60
2021/07/29 06:42:21;;;;;;;;;;;;;;;27.46;51.08;100462.52;1761546;79;20231;-59
2021/07/29 06:44:47;;;;;;;;;;;;;;;27.44;50.95;100470.47;1763983;79;20274;-60
2021/07/29 06:47:14;;;;;;;;;;;;;;;27.43;50.82;100471.64;1761400;80;20220;-59
2021/07/29 06:49:40;;;;;;;;;;;;;;;27.41;50.71;100471.23;1764197;79;20177;-59
2021/07/29 06:52:08;;;;;;;;;;;;;;;27.41;50.58;100476.81;1793712;78;23325;-59
2021/07/29 06:54:34;;;;;;;;;;;;;;;27.39;50.46;100473.57;1758999;80;20149;-59
2021/07/29 06:57:00;;;;;;;;;;;;;;;27.37;50.33;100473.15;1783691;78;20215;-58
2021/07/29 06:59:26;;;;;;;;;;;;;;;27.36;50.20;100466.75;1777560;78;20155;-59
2021/07/29 07:01:52;;;;;;;;;;;;;;;27.34;50.09;100476.08;1790784;78;20196;-58
2021/07/29 07:04:17;;;;;;;;;;;;;;;27.33;49.97;100472.28;1798904;78;21059;-58
2021/07/29 07:06:43;;;;;;;;;;;;;;;27.31;49.85;100476.02;1794821;78;20451;-59
2021/07/29 07:09:09;;;;;;;;;;;;;;;27.30;49.74;100472.41;1799210;78;20181;-58
2021/07/29 07:11:35;;;;;;;;;;;;;;;27.28;49.62;100474.17;1783821;78;20242;-59
2021/07/29 07:14:02;;;;;;;;;;;;;;;27.26;49.51;100469.56;1785155;78;20158;-59
2021/07/29 07:16:28;;;;;;;;;;;;;;;27.25;49.40;100462.94;1783405;78;21200;-59
2021/07/29 07:18:56;;;;;;;;;;;;;;;27.24;49.28;100452.97;1793096;79;20432;-58
2021/07/29 07:21:22;;;;;;;;;;;;;;;27.22;49.15;100451.93;1791245;78;20236;-58
2021/07/29 07:23:48;;;;;;;;;;;;;;;27.20;49.05;100454.27;1785547;80;20202;-58
2021/07/29 07:26:18;;;;;;;;;;;;;;;27.19;48.98;100452.68;1786146;78;20863;-58
2021/07/29 07:28:44;;;;;;;;;;;;;;;27.18;48.96;100448.27;1785647;78;23233;-59
2021/07/29 07:31:10;;;;;;;;;;;;;;;27.19;48.96;100455.48;1783274;79;20172;-58
2021/07/29 07:33:36;;;;;;;;;;;;;;;27.20;48.95;100454.27;1786445;79;20290;-58
2021/07/29 07:36:02;;;;;;;;;;;;;;;27.23;48.97;100448.55;1785137;79;20450;-58
2021/07/29 07:38:28;;;;;;;;;;;;;;;27.22;48.97;100439.36;1792947;78;20205;-58
2021/07/29 07:40:54;;;;;;;;;;;;;;;27.24;49.04;100435.59;1783066;80;21195;-58
2021/07/29 07:43:20;;;;;;;;;;;;;;;27.25;49.01;100436.41;1766381;80;20766;-57
2021/07/29 07:45:48;;;;;;;;;;;;;;;27.28;49.05;100429.28;1785602;80;20214;-57
2021/07/29 07:48:13;;;;;;;;;;;;;;;27.28;49.06;100430.68;1787502;78;20209;-58
2021/07/29 07:50:40;;;;;;;;;;;;;;;27.30;49.08;100419.34;1782760;80;20238;-59
2021/07/29 07:53:06;;;;;;;;;;;;;;;27.32;49.11;100418.98;1785005;80;21047;-58
2021/07/29 07:55:32;;;;;;;;;;;;;;;27.32;49.14;100411.41;1776914;80;20174;-58
2021/07/29 07:57:58;;;;;;;;;;;;;;;27.33;49.15;100413.62;1775947;78;20216;-59
2021/07/29 08:00:24;;;;;;;;;;;;;;;27.33;49.17;100415.80;1793132;78;20154;-58
2021/07/29 08:02:50;;;;;;;;;;;;;;;27.35;49.20;100407.86;1781956;80;20304;-58
2021/07/29 08:05:16;;;;;;;;;;;;;;;27.36;49.22;100411.47;1744590;81;21115;-58
2021/07/29 08:07:42;;;;;;;;;;;;;;;27.36;49.25;100408.09;1773494;79;20138;-58
2021/07/29 08:10:10;;;;;;;;;;;;;;;27.38;49.25;100413.28;1769266;79;20794;-59
2021/07/29 08:12:36;;;;;;;;;;;;;;;27.39;49.29;100410.70;1745315;80;20435;-58
2021/07/29 08:15:03;;;;;;;;;;;;;;;27.40;49.34;100406.16;1766100;80;20188;-58
2021/07/29 08:17:29;;;;;;;;;;;;;;;27.41;49.35;100398.00;1793827;78;21036;-58
2021/07/29 08:19:55;;;;;;;;;;;;;;;27.42;49.36;100393.19;1786575;80;20169;-58
2021/07/29 08:22:21;;;;;;;;;;;;;;;27.42;49.41;100392.60;1788566;80;20190;-58
2021/07/29 08:24:47;;;;;;;;;;;;;;;27.43;49.42;100387.24;1794088;79;20207;-58
2021/07/29 08:27:13;;;;;;;;;;;;;;;27.44;49.45;100398.64;1762852;80;21154;-58
2021/07/29 08:29:38;;;;;;;;;;;;;;;27.46;49.48;100401.05;1767871;80;21784;-57
2021/07/29 08:32:07;;;;;;;;;;;;;;;27.47;49.51;100404.06;1767269;80;20220;-58
2021/07/29 08:34:33;;;;;;;;;;;;;;;27.47;49.53;100408.25;1800919;78;20153;-58
2021/07/29 08:36:59;;;;;;;;;;;;;;;27.49;49.56;100404.53;1800895;78;21976;-59
2021/07/29 08:39:24;;;;;;;;;;;;;;;27.49;49.58;100395.56;1765719;80;20204;-58
2021/07/29 08:41:51;;;;;;;;;;;;;;;27.50;49.61;100390.76;1800546;78;21527;-58
2021/07/29 08:44:17;;;;;;;;;;;;;;;27.52;49.63;100391.20;1768877;80;20185;-59
2021/07/29 08:46:44;;;;;;;;;;;;;;;27.52;49.67;100388.41;1766809;80;20188;-58
2021/07/29 08:49:10;;;;;;;;;;;;;;;27.52;49.67;100393.41;1798431;78;20460;-58
2021/07/29 08:51:36;;;;;;;;;;;;;;;27.51;49.58;100390.98;1797043;78;20256;-59
2021/07/29 08:54:08;;;;;;;;;;;;;;;27.49;49.55;100387.77;1757731;80;21392;-58
2021/07/29 08:56:30;;;;;;;;;;;;;;;27.44;49.47;100388.86;1763584;80;20244;-58
2021/07/29 08:58:56;;;;;;;;;;;;;;;27.42;49.42;100394.00;1769778;80;20171;-58
2021/07/29 09:01:24;;;;;;;;;;;;;;;27.39;49.37;100380.79;1767249;80;20481;-58
2021/07/29 09:03:52;;;;;;;;;;;;;;;27.36;49.32;100380.73;1735105;80;20444;-60
2021/07/29 09:06:18;;;;;;;;;;;;;;;27.33;49.25;100378.70;1804487;78;21203;-55
2021/07/29 09:08:51;;;;;;;;;;;;;;;27.30;49.17;100376.63;1759326;80;20215;-59
2021/07/29 09:11:28;;;;;;;;;;;;;;;27.28;49.13;100373.42;1769327;80;20202;-58
2021/07/29 09:14:08;;;;;;;;;;;;;;;27.25;49.02;100374.37;1771763;80;20449;-57
2021/07/29 09:16:37;;;;;;;;;;;;;;;27.21;48.96;100370.71;1767157;80;20165;-58
2021/07/29 09:19:02;;;;;;;;;;;;;;;27.20;48.90;100369.70;1761134;80;22060;-58
2021/07/29 09:21:28;;;;;;;;;;;;;;;27.18;48.83;100364.48;1768829;80;20226;-60
2021/07/29 09:24:07;;;;;;;;;;;;;;;27.15;48.78;100369.42;1767422;80;20186;-59
2021/07/29 09:26:59;;;;;;;;;;;;;;;27.14;48.76;100369.79;1764619;80;20193;-59
2021/07/29 09:29:26;;;;;;;;;;;;;;;27.16;48.72;100366.02;1764423;80;20248;-59
2021/07/29 09:32:11;;;;;;;;;;;;;;;27.20;48.67;100371.10;1804825;78;21167;-60
2021/07/29 09:34:51;;;;;;;;;;;;;;;27.20;48.59;100367.69;1765560;80;20195;-60
2021/07/29 09:37:19;;;;;;;;;;;;;;;27.24;48.50;100366.38;1762474;80;20422;-59
2021/07/29 09:39:45;;;;;;;;;;;;;;;27.26;48.38;100366.80;1768864;80;21838;-59
2021/07/29 09:42:23;;;;;;;;;;;;;;;27.28;48.32;100362.25;1762138;80;20169;-60
2021/07/29 09:44:50;;;;;;;;;;;;;;;27.29;48.25;100360.45;1763015;80;21160;-60
2021/07/29 09:47:18;;;;;;;;;;;;;;;27.31;48.17;100359.51;1767317;80;20517;-60
2021/07/29 09:49:45;;;;;;;;;;;;;;;27.33;48.08;100356.35;1795193;78;20138;-60
2021/07/29 09:52:11;;;;;;;;;;;;;;;27.35;48.02;100356.77;1761565;81;20595;-59
2021/07/29 09:54:39;;;;;;;;;;;;;;;27.37;47.95;100357.99;1741523;80;20928;-59
2021/07/29 09:57:06;;;;;;;;;;;;;;;27.38;47.88;100352.63;1767583;80;22035;-60
2021/07/29 09:59:32;;;;;;;;;;;;;;;27.39;47.79;100351.45;1765408;80;20208;-60
2021/07/29 10:02:00;;;;;;;;;;;;;;;27.41;47.72;100341.31;1794934;78;20196;-59
2021/07/29 10:04:29;;;;;;;;;;;;;;;27.42;47.63;100340.11;1764985;80;20422;-60
2021/07/29 10:06:56;;;;;;;;;;;;;;;27.44;47.57;100340.55;1797120;78;20157;-60
2021/07/29 10:09:22;;;;;;;;;;;;;;;27.44;47.49;100348.34;1771359;80;21114;-61
2021/07/29 10:11:50;;;;;;;;;;;;;;;27.45;47.47;100348.57;1766205;80;20165;-60
2021/07/29 10:14:51;;;;;;;;;;;;;;;27.48;47.40;100344.24;1769068;80;20153;-60
2021/07/29 10:17:17;;;;;;;;;;;;;;;27.48;47.34;100342.84;1765178;80;20161;-60
2021/07/29 10:20:21;;;;;;;;;;;;;;;27.49;47.26;100340.27;1773958;80;20639;-60
2021/07/29 10:22:47;;;;;;;;;;;;;;;27.50;47.20;100341.27;1780618;78;22047;-60
2021/07/29 10:25:14;;;;;;;;;;;;;;;27.51;47.11;100335.09;1764250;80;20211;-60
2021/07/29 10:27:41;;;;;;;;;;;;;;;27.52;47.08;100336.72;1783538;78;20184;-60
2021/07/29 10:30:23;;;;;;;;;;;;;;;27.53;47.04;100342.53;1781830;78;20133;-60
2021/07/29 10:32:50;;;;;;;;;;;;;;;27.54;46.99;100349.73;1787539;78;20156;-60
2021/07/29 10:35:36;;;;;;;;;;;;;;;27.55;46.93;100352.13;1778622;78;21561;-60
2021/07/29 10:38:02;;;;;;;;;;;;;;;27.56;46.89;100345.95;1835470;77;20231;-58
2021/07/29 10:40:35;;;;;;;;;;;;;;;27.57;46.82;100348.98;1835441;76;20195;-60
2021/07/29 10:43:22;;;;;;;;;;;;;;;27.57;46.76;100335.81;1839488;77;20186;-59
2021/07/29 10:45:52;;;;;;;;;;;;;;;27.59;46.70;100341.01;1839421;77;20199;-59
2021/07/29 10:48:46;;;;;;;;;;;;;;;27.60;46.65;100339.83;1836608;76;21704;-60
2021/07/29 10:51:23;;;;;;;;;;;;;;;27.61;46.60;100336.67;1837482;77;20488;-60
2021/07/29 10:53:55;;;;;;;;;;;;;;;27.63;46.50;100339.07;1839474;76;20188;-60
2021/07/29 10:56:23;;;;;;;;;;;;;;;27.64;46.47;100344.30;1835517;76;20155;-61
2021/07/29 10:58:52;;;;;;;;;;;;;;;27.66;46.39;100338.34;1839242;77;20549;-61
2021/07/29 11:01:18;;;;;;;;;;;;;;;27.68;46.37;100342.94;1838784;76;21047;-60
2021/07/29 11:03:47;;;;;;;;;;;;;;;27.68;46.31;100337.36;1764065;80;20488;-61
2021/07/29 11:06:42;;;;;;;;;;;;;;;27.70;46.27;100333.61;1784459;78;20144;-60
2021/07/29 11:09:19;;;;;;;;;;;;;;;27.73;46.22;100337.62;1727969;81;20435;-59
2021/07/29 11:11:48;;;;;;;;;;;;;;;27.68;45.81;100337.36;1786738;80;20233;-58
2021/07/29 11:14:16;;;;;;;;;;;;;;;27.59;45.57;100335.41;1784224;80;21483;-61
2021/07/29 11:16:42;;;;;;;;;;;;;;;27.49;45.47;100331.30;1789855;80;21577;-59
2021/07/29 11:19:08;;;;;;;;;;;;;;;27.41;45.38;100328.74;1783273;79;20187;-59
2021/07/29 11:21:35;;;;;;;;;;;;;;;27.34;45.31;100328.61;1777756;79;20666;-59
2021/07/29 11:24:01;;;;;;;;;;;;;;;27.28;45.25;100331.52;1772639;80;20311;-59
2021/07/29 11:26:27;;;;;;;;;;;;;;;27.22;45.20;100324.84;1735622;80;21154;-61
2021/07/29 11:29:06;;;;;;;;;;;;;;;27.17;45.17;100322.37;1728283;82;20197;-59
2021/07/29 11:31:34;;;;;;;;;;;;;;;27.15;45.13;100333.13;1834334;77;20405;-61
2021/07/29 11:34:00;;;;;;;;;;;;;;;27.10;45.03;100321.45;1842722;77;20513;-60
2021/07/29 11:36:26;;;;;;;;;;;;;;;27.05;44.95;100316.98;1840494;77;20570;-61
2021/07/29 11:38:56;;;;;;;;;;;;;;;27.03;44.91;100321.34;1834374;76;21252;-60
2021/07/29 11:41:23;;;;;;;;;;;;;;;27.00;44.84;100312.29;1840258;77;20186;-60
2021/07/29 11:43:54;;;;;;;;;;;;;;;26.98;44.79;100313.27;1845951;77;20183;-60
2021/07/29 11:46:20;;;;;;;;;;;;;;;26.95;44.72;100312.02;1832826;77;20247;-60
2021/07/29 11:48:46;;;;;;;;;;;;;;;26.93;44.70;100303.80;1831470;77;20368;-58
2021/07/29 11:51:14;;;;;;;;;;;;;;;26.91;44.63;100296.38;1841582;77;20719;-60
2021/07/29 11:53:41;;;;;;;;;;;;;;;26.90;44.58;100300.38;1848457;77;20181;-59
2021/07/29 11:56:09;;;;;;;;;;;;;;;26.88;44.54;100285.97;1835239;77;20163;-57
2021/07/29 11:58:39;;;;;;;;;;;;;;;26.86;44.50;100290.55;1837790;77;20186;-60
2021/07/29 12:01:13;;;;;;;;;;;;;;;26.85;44.43;100290.33;1843525;76;20169;-56
2021/07/29 12:03:44;;;;;;;;;;;;;;;26.85;44.38;100281.95;1841620;76;21755;-59
2021/07/29 12:06:10;;;;;;;;;;;;;;;26.84;44.35;100277.51;1835732;76;20142;-60
2021/07/29 12:08:39;;;;;;;;;;;;;;;26.84;44.28;100273.31;1843429;76;20160;-60
2021/07/29 12:11:05;;;;;;;;;;;;;;;26.83;44.24;100265.53;1839660;76;20380;-60
2021/07/29 12:13:31;;;;;;;;;;;;;;;26.83;44.19;100263.33;1840451;76;20174;-59
2021/07/29 12:16:00;;;;;;;;;;;;;;;26.83;44.16;100260.53;1836635;77;21062;-60
2021/07/29 12:18:26;;;;;;;;;;;;;;;26.83;44.14;100258.55;1843429;76;20115;-60
2021/07/29 12:20:56;;;;;;;;;;;;;;;26.85;44.08;100253.23;1844091;77;20260;-59
2021/07/29 12:23:23;;;;;;;;;;;;;;;26.85;44.07;100259.62;1842941;77;20136;-60
2021/07/29 12:25:49;;;;;;;;;;;;;;;26.85;44.03;100245.66;1843941;77;20132;-60
2021/07/29 12:28:15;;;;;;;;;;;;;;;26.86;44.02;100245.88;1849037;77;21056;-60
2021/07/29 12:30:48;;;;;;;;;;;;;;;26.87;44.03;100250.85;1844029;77;20424;-59
2021/07/29 12:33:16;;;;;;;;;;;;;;;26.88;44.01;100239.91;1841679;77;20650;-60
2021/07/29 12:35:58;;;;;;;;;;;;;;;26.90;44.00;100248.73;1845260;77;20123;-59
2021/07/29 12:38:31;;;;;;;;;;;;;;;26.89;43.96;100238.16;1841764;76;20138;-60
2021/07/29 12:40:57;;;;;;;;;;;;;;;26.91;43.92;100234.97;1841571;77;21119;-61